Terminal Aerodrome Forecast
Issued by NWS Twin Cities, MN

Home | Current Version | Previous Version | Text Only | Print | Product List | Glossary Off
Versions: 1 2 3 4 5 6 7 8 9 10 11 12 13 14 15 16 17 18 19 20

000
FTUS43 KMPX 311500 AAA
TAFSTC
TAF AMD
KSTC 311549Z 3116/0112 14014G24KT P6SM SCT020 BKN035
     FM312000 19015G22KT P6SM VCSH BKN050
     FM312300 18010KT P6SM VCTS SCT030CB BKN070
     FM010300 23008KT P6SM SCT020 BKN090
     FM010900 30005KT 6SM BR SCT010 BKN150=

USA.gov is the U.S. government's official web portal to all federal, state and local government web resources and services.